Time;durP1;ratioP1;P1;durP2;ratioP2;P2;SDS_P1;SDS_P2;PMS_P1;PMS_P2;Temp;Humidity;BMP_temperature;BMP_pressure;BME280_temperature;BME280_humidity;BME280_pressure;Samples;Min_cycle;Max_cycle;Signal;HPM_P1;HPM_P2
2021/12/20 00:00:48;;;;;;;19.15;14.35;;;;;;;3.62;100.00;97521.66;5090793;28;20424;-63
2021/12/20 00:03:14;;;;;;;18.45;13.98;;;;;;;3.73;100.00;97522.09;5091230;28;20410;-63
2021/12/20 00:05:40;;;;;;;19.38;14.15;;;;;;;3.49;100.00;97529.94;5091801;28;20884;-63
2021/12/20 00:08:05;;;;;;;19.23;13.93;;;;;;;3.70;100.00;97521.63;5092022;28;20405;-62
2021/12/20 00:10:31;;;;;;;20.05;13.70;;;;;;;3.60;100.00;97521.81;5092013;28;20738;-63
2021/12/20 00:12:57;;;;;;;19.00;13.52;;;;;;;3.86;100.00;97508.63;5091190;28;20767;-63
2021/12/20 00:15:22;;;;;;;20.23;14.27;;;;;;;3.92;100.00;97502.78;5091580;28;20394;-63
2021/12/20 00:17:48;;;;;;;20.33;14.38;;;;;;;3.95;100.00;97499.88;5091563;28;20874;-63
2021/12/20 00:20:13;;;;;;;20.15;13.88;;;;;;;4.10;100.00;97492.19;5091608;28;20473;-63
2021/12/20 00:22:40;;;;;;;20.10;14.00;;;;;;;4.25;99.62;97487.91;5091927;28;20421;-62
2021/12/20 00:25:07;;;;;;;20.65;14.02;;;;;;;3.95;100.00;97497.28;5091465;28;20422;-63
2021/12/20 00:27:33;;;;;;;19.70;14.10;;;;;;;4.00;100.00;97489.00;5091670;28;20394;-61
2021/12/20 00:29:59;;;;;;;22.67;15.00;;;;;;;4.12;100.00;97483.25;5090977;28;20440;-61
2021/12/20 00:32:24;;;;;;;20.17;14.10;;;;;;;3.89;100.00;97487.56;5089879;28;20390;-62
2021/12/20 00:34:50;;;;;;;19.07;13.83;;;;;;;3.84;100.00;97487.28;5091162;28;20427;-62
2021/12/20 00:42:45;;;;;;;18.40;13.68;;;;;;;3.99;100.00;97471.81;5091204;28;20467;-63
2021/12/20 00:45:12;;;;;;;18.60;13.80;;;;;;;3.84;100.00;97481.28;5098016;28;20401;-62
2021/12/20 00:47:38;;;;;;;18.65;13.73;;;;;;;3.93;100.00;97490.63;5096975;28;20394;-63
2021/12/20 00:50:06;;;;;;;18.00;13.23;;;;;;;3.91;100.00;97488.19;5097893;28;20883;-63
2021/12/20 00:52:32;;;;;;;17.90;13.10;;;;;;;3.79;100.00;97486.94;5098389;28;20436;-62
2021/12/20 00:54:57;;;;;;;16.65;12.75;;;;;;;3.90;100.00;97480.59;5097706;28;20426;-62
2021/12/20 00:57:23;;;;;;;18.33;13.32;;;;;;;3.80;100.00;97479.97;5097934;28;20385;-63
2021/12/20 00:59:48;;;;;;;19.83;14.00;;;;;;;3.94;100.00;97467.13;5098009;28;20433;-63
2021/12/20 01:02:14;;;;;;;18.80;13.93;;;;;;;3.90;100.00;97481.38;5097883;28;20492;-64
2021/12/20 01:04:40;;;;;;;19.05;14.00;;;;;;;3.74;100.00;97486.63;5097518;28;20719;-64
2021/12/20 01:07:06;;;;;;;19.45;14.38;;;;;;;3.86;100.00;97482.72;5096182;28;20405;-63
2021/12/20 01:09:31;;;;;;;20.33;14.70;;;;;;;3.80;100.00;97483.38;5097978;28;20397;-63
2021/12/20 01:12:03;;;;;;;18.43;13.97;;;;;;;3.75;100.00;97476.09;5097925;28;20389;-63
2021/12/20 01:14:31;;;;;;;20.05;14.48;;;;;;;3.85;100.00;97462.94;5097814;28;20382;-63
2021/12/20 01:17:02;;;;;;;19.60;14.57;;;;;;;3.70;100.00;97475.78;5097480;28;20408;-63
2021/12/20 01:19:28;;;;;;;21.23;14.20;;;;;;;3.71;100.00;97474.81;5098022;28;20417;-63
2021/12/20 01:21:53;;;;;;;20.42;14.60;;;;;;;3.64;100.00;97463.50;5097500;28;20475;-63
2021/12/20 01:24:19;;;;;;;19.50;13.50;;;;;;;3.58;100.00;97465.94;5097845;28;20385;-63
2021/12/20 01:26:44;;;;;;;18.77;14.18;;;;;;;3.64;100.00;97471.28;5097600;28;20411;-63
2021/12/20 01:29:09;;;;;;;21.37;14.33;;;;;;;3.66;100.00;97469.34;5097894;28;20878;-63
2021/12/20 01:31:35;;;;;;;22.73;15.03;;;;;;;3.57;100.00;97475.50;5097319;28;20746;-64
2021/12/20 01:34:00;;;;;;;21.30;14.97;;;;;;;3.57;100.00;97475.50;5097252;28;20401;-63
2021/12/20 01:36:25;;;;;;;21.17;14.37;;;;;;;3.50;100.00;97473.75;5097442;28;20493;-63
2021/12/20 01:38:51;;;;;;;20.10;14.23;;;;;;;3.47;100.00;97476.66;5096411;28;20784;-63
2021/12/20 01:41:16;;;;;;;20.90;14.02;;;;;;;3.57;100.00;97462.53;5097523;28;20401;-63
2021/12/20 01:43:42;;;;;;;20.37;14.67;;;;;;;3.90;100.00;97465.06;5097231;28;20724;-63
2021/12/20 01:46:07;;;;;;;21.50;14.32;;;;;;;3.70;100.00;97468.00;5097677;28;20386;-63
2021/12/20 01:48:33;;;;;;;21.43;14.13;;;;;;;3.83;100.00;97470.09;5096066;28;20400;-63
2021/12/20 01:53:34;;;;;;;19.73;13.32;;;;;;;3.48;100.00;97457.53;5097578;28;20408;-63
2021/12/20 01:56:00;;;;;;;20.30;13.20;;;;;;;3.39;100.00;97466.31;5094226;28;20496;-63
2021/12/20 01:58:28;;;;;;;19.10;13.38;;;;;;;3.27;100.00;97466.66;5093322;28;20428;-63
2021/12/20 02:03:40;;;;;;;22.25;13.93;;;;;;;3.44;100.00;97464.84;5093839;28;20835;-63
2021/12/20 02:06:11;;;;;;;20.33;13.50;;;;;;;3.47;100.00;97467.09;5094212;28;20406;-63
2021/12/20 02:08:37;;;;;;;20.38;13.38;;;;;;;3.31;100.00;97454.16;5094366;28;20724;-63
2021/12/20 02:11:09;;;;;;;19.88;13.82;;;;;;;3.42;100.00;97460.78;5093688;28;21249;-63
2021/12/20 02:13:37;;;;;;;21.05;13.93;;;;;;;3.53;100.00;97458.66;5093756;28;20447;-63
2021/12/20 02:16:03;;;;;;;22.50;14.25;;;;;;;3.54;100.00;97467.25;5093963;28;20476;-63
2021/12/20 02:18:29;;;;;;;20.92;13.50;;;;;;;3.29;100.00;97466.47;5093663;28;20401;-63
2021/12/20 02:20:55;;;;;;;21.02;14.27;;;;;;;3.16;100.00;97458.41;5092228;28;20398;-63
2021/12/20 02:23:21;;;;;;;19.90;14.13;;;;;;;3.29;100.00;97454.31;5093063;28;20897;-63
2021/12/20 02:25:47;;;;;;;20.50;13.70;;;;;;;3.16;100.00;97459.22;5093584;28;20402;-63
2021/12/20 02:28:15;;;;;;;22.27;13.70;;;;;;;3.18;100.00;97452.06;5092194;28;20382;-63
2021/12/20 02:30:53;;;;;;;21.30;14.60;;;;;;;3.40;100.00;97444.63;5093487;28;20431;-63
2021/12/20 02:38:51;;;;;;;19.90;13.63;;;;;;;3.27;100.00;97440.75;5090720;28;20508;-63
2021/12/20 02:41:24;;;;;;;22.25;14.25;;;;;;;3.33;100.00;97429.72;5093000;28;20863;-63
2021/12/20 02:43:57;;;;;;;21.33;13.95;;;;;;;3.09;100.00;97437.53;5093124;28;20393;-63
2021/12/20 02:49:17;;;;;;;21.48;13.55;;;;;;;3.47;100.00;97432.59;5093229;28;20394;-63
2021/12/20 02:51:44;;;;;;;23.05;14.32;;;;;;;3.24;100.00;97433.28;5092847;28;20895;-63
2021/12/20 02:54:12;;;;;;;22.00;14.50;;;;;;;3.27;100.00;97425.22;5107995;28;20731;-63
2021/12/20 02:56:38;;;;;;;22.27;14.35;;;;;;;3.37;100.00;97429.38;5093305;28;20382;-63
2021/12/20 02:59:06;;;;;;;22.20;14.38;;;;;;;3.39;100.00;97433.44;5091443;28;20390;-64
2021/12/20 03:01:31;;;;;;;21.95;14.13;;;;;;;3.51;100.00;97421.72;5092363;28;20504;-63
2021/12/20 03:03:58;;;;;;;24.90;15.50;;;;;;;3.51;100.00;97420.94;5092521;28;20465;-63
2021/12/20 03:06:29;;;;;;;21.50;13.70;;;;;;;3.67;100.00;97413.94;5092074;28;20405;-63
2021/12/20 03:08:56;;;;;;;22.40;14.70;;;;;;;3.45;100.00;97421.59;5091965;28;20477;-63
2021/12/20 03:11:24;;;;;;;22.48;14.60;;;;;;;3.52;100.00;97425.13;5092505;28;20469;-68
2021/12/20 03:13:54;;;;;;;23.67;14.68;;;;;;;3.48;100.00;97416.91;5092768;28;20382;-64
2021/12/20 03:16:20;;;;;;;20.88;13.75;;;;;;;3.40;100.00;97427.25;5091553;28;20478;-63
2021/12/20 03:18:46;;;;;;;21.35;13.90;;;;;;;3.39;100.00;97417.91;5092680;28;20477;-63
2021/12/20 03:21:11;;;;;;;21.17;13.75;;;;;;;3.53;100.00;97411.22;5092610;28;20386;-63
2021/12/20 03:23:37;;;;;;;21.43;14.17;;;;;;;3.56;100.00;97419.47;5092468;28;20390;-63
2021/12/20 03:26:02;;;;;;;20.73;14.23;;;;;;;3.58;100.00;97427.88;5092358;28;20388;-63
2021/12/20 03:28:28;;;;;;;21.60;14.13;;;;;;;3.52;100.00;97431.13;5092481;28;20498;-63
2021/12/20 03:30:53;;;;;;;21.13;14.17;;;;;;;3.43;100.00;97432.13;5092703;28;20398;-63
2021/12/20 03:33:18;;;;;;;21.57;14.57;;;;;;;3.52;100.00;97428.53;5091281;28;20451;-63
2021/12/20 03:35:44;;;;;;;20.70;14.53;;;;;;;3.81;100.00;97430.56;5092311;28;20389;-63
2021/12/20 03:38:09;;;;;;;22.57;14.87;;;;;;;3.91;100.00;97427.75;5092732;28;20418;-63
2021/12/20 03:40:36;;;;;;;21.83;14.18;;;;;;;3.75;100.00;97423.44;5092228;28;20382;-63
2021/12/20 03:43:03;;;;;;;23.67;14.30;;;;;;;3.40;100.00;97436.84;5092014;28;20453;-63
2021/12/20 03:45:28;;;;;;;24.67;14.57;;;;;;;3.45;100.00;97434.56;5074211;28;20488;-63
2021/12/20 03:47:54;;;;;;;23.67;14.93;;;;;;;3.32;100.00;97441.06;5092285;28;20747;-63
2021/12/20 03:50:19;;;;;;;23.38;14.30;;;;;;;3.15;100.00;97441.25;5092217;28;20850;-63
2021/12/20 03:52:44;;;;;;;26.53;16.30;;;;;;;2.84;100.00;97452.25;5091956;28;20743;-64
2021/12/20 03:55:12;;;;;;;22.97;14.47;;;;;;;2.65;100.00;97446.59;5092077;28;20389;-63
2021/12/20 03:57:37;;;;;;;26.70;15.55;;;;;;;2.75;100.00;97439.47;5091772;28;20390;-63
2021/12/20 04:00:10;;;;;;;24.30;15.63;;;;;;;2.95;100.00;97422.66;5090754;28;20443;-63
2021/12/20 04:02:41;;;;;;;25.10;14.68;;;;;;;2.90;100.00;97424.91;5091538;28;20459;-64
2021/12/20 04:05:08;;;;;;;24.05;15.35;;;;;;;2.71;100.00;97438.19;5091707;28;20389;-63
2021/12/20 04:07:34;;;;;;;32.40;14.50;;;;;;;2.55;100.00;97427.81;5090758;28;20419;-63
2021/12/20 04:09:59;;;;;;;21.20;13.50;;;;;;;2.68;100.00;97431.53;5091974;28;20476;-63
2021/12/20 04:12:25;;;;;;;23.97;14.90;;;;;;;2.59;100.00;97431.69;5091837;28;20402;-63
2021/12/20 04:14:50;;;;;;;21.95;14.35;;;;;;;2.49;100.00;97427.50;5091112;28;20384;-64
2021/12/20 04:17:16;;;;;;;22.70;14.60;;;;;;;2.74;100.00;97428.31;5091727;28;20859;-64
2021/12/20 04:19:41;;;;;;;24.93;15.23;;;;;;;2.69;100.00;97442.69;5091525;28;20764;-63
2021/12/20 04:22:07;;;;;;;23.70;14.82;;;;;;;2.86;100.00;97433.97;5091490;28;20413;-63
2021/12/20 04:24:32;;;;;;;23.37;14.17;;;;;;;2.71;100.00;97435.59;5090331;28;20402;-63
2021/12/20 04:26:58;;;;;;;22.27;14.60;;;;;;;2.92;100.00;97434.13;5091430;28;20411;-63
2021/12/20 04:29:23;;;;;;;25.27;14.30;;;;;;;2.90;100.00;97430.91;5091581;28;20386;-63
2021/12/20 04:31:49;;;;;;;21.80;14.10;;;;;;;2.92;100.00;97435.91;5091541;28;20551;-63
2021/12/20 04:34:16;;;;;;;21.67;14.07;;;;;;;2.91;100.00;97439.47;5091533;28;20870;-63
2021/12/20 04:36:41;;;;;;;23.47;14.93;;;;;;;2.96;100.00;97436.38;5090280;28;20414;-63
2021/12/20 04:39:12;;;;;;;22.43;13.80;;;;;;;2.78;100.00;97434.81;5091471;28;20389;-63
2021/12/20 04:41:38;;;;;;;20.25;13.68;;;;;;;2.81;100.00;97433.66;5091611;28;20940;-63
2021/12/20 04:44:04;;;;;;;20.50;13.70;;;;;;;2.98;100.00;97424.09;5091584;28;20406;-63
2021/12/20 04:46:29;;;;;;;21.73;13.50;;;;;;;3.14;100.00;97426.66;5091524;28;20394;-63
2021/12/20 04:48:55;;;;;;;21.07;13.07;;;;;;;3.00;100.00;97440.28;5090102;28;20483;-63
2021/12/20 04:51:20;;;;;;;18.77;12.87;;;;;;;3.08;100.00;97445.44;5091660;28;20392;-63
2021/12/20 04:53:45;;;;;;;17.50;12.70;;;;;;;3.24;100.00;97445.44;5091101;28;20402;-63
2021/12/20 04:56:11;;;;;;;18.57;12.43;;;;;;;2.97;100.00;97441.41;5090842;28;20397;-63
2021/12/20 04:58:36;;;;;;;18.77;13.00;;;;;;;2.93;100.00;97446.13;5090803;28;20520;-63
2021/12/20 05:01:02;;;;;;;20.47;13.17;;;;;;;3.10;100.00;97444.34;5091043;28;20405;-63
2021/12/20 05:03:27;;;;;;;18.05;12.75;;;;;;;2.86;100.00;97449.50;5090788;28;20514;-63
2021/12/20 05:05:53;;;;;;;25.73;13.03;;;;;;;2.95;100.00;97445.16;5090833;28;20555;-64
2021/12/20 05:08:19;;;;;;;18.63;13.17;;;;;;;2.88;100.00;97443.22;5091167;28;20501;-63
2021/12/20 05:10:45;;;;;;;19.27;13.25;;;;;;;2.89;100.00;97439.66;5089568;28;20394;-65
2021/12/20 05:13:12;;;;;;;21.33;13.63;;;;;;;3.14;100.00;97443.03;5090626;28;20432;-64
2021/12/20 05:15:39;;;;;;;20.77;14.23;;;;;;;3.15;100.00;97442.06;5089714;28;20386;-64
2021/12/20 05:18:06;;;;;;;18.80;12.82;;;;;;;2.95;100.00;97435.63;5091161;28;20386;-63
2021/12/20 05:20:32;;;;;;;18.17;12.82;;;;;;;3.05;100.00;97440.63;5091151;28;20746;-63
2021/12/20 05:22:58;;;;;;;18.52;12.77;;;;;;;3.20;100.00;97431.19;5090957;28;20401;-63
2021/12/20 05:25:24;;;;;;;21.15;13.07;;;;;;;3.11;100.00;97438.19;5090989;28;20850;-63
2021/12/20 05:27:50;;;;;;;18.80;12.40;;;;;;;3.07;100.00;97434.28;5090567;28;20386;-68
2021/12/20 05:30:16;;;;;;;20.02;13.13;;;;;;;2.89;100.00;97446.63;5091621;28;20397;-63
2021/12/20 05:32:42;;;;;;;21.52;13.85;;;;;;;3.06;100.00;97447.41;5094598;28;20385;-63
2021/12/20 05:35:09;;;;;;;22.30;14.00;;;;;;;2.85;100.00;97440.94;5094609;28;20396;-64
2021/12/20 05:37:35;;;;;;;22.23;13.73;;;;;;;3.06;100.00;97442.22;5094831;28;20412;-63
2021/12/20 05:40:01;;;;;;;23.27;15.48;;;;;;;3.17;100.00;97442.72;5094952;28;20394;-63
2021/12/20 05:42:27;;;;;;;21.67;14.20;;;;;;;3.25;100.00;97439.28;5094222;28;20474;-64
2021/12/20 05:44:52;;;;;;;19.30;12.97;;;;;;;3.12;100.00;97442.38;5094282;28;20390;-63
2021/12/20 05:47:18;;;;;;;19.60;13.63;;;;;;;3.16;100.00;97441.09;5094561;28;20732;-64
2021/12/20 05:49:44;;;;;;;20.17;13.05;;;;;;;3.06;100.00;97447.41;5094503;28;20416;-65
2021/12/20 05:52:09;;;;;;;20.88;13.30;;;;;;;3.07;100.00;97452.41;5094596;28;20394;-63
2021/12/20 05:54:35;;;;;;;22.52;13.77;;;;;;;3.01;100.00;97463.41;5094472;28;20382;-63
2021/12/20 05:57:00;;;;;;;21.13;13.80;;;;;;;3.23;100.00;97462.75;5094127;28;20719;-64
2021/12/20 05:59:26;;;;;;;21.33;13.73;;;;;;;3.35;100.00;97464.03;5093825;28;20724;-64
2021/12/20 06:01:51;;;;;;;21.53;13.50;;;;;;;3.30;100.00;97457.72;5093482;28;20409;-63
2021/12/20 06:04:16;;;;;;;21.13;13.63;;;;;;;3.21;100.00;97471.69;5093527;28;20405;-63
2021/12/20 06:06:42;;;;;;;19.90;13.00;;;;;;;3.13;100.00;97471.66;5094323;28;20881;-68
2021/12/20 06:09:07;;;;;;;18.93;13.17;;;;;;;3.24;100.00;97476.50;5093577;28;20409;-64
2021/12/20 06:11:33;;;;;;;19.48;13.05;;;;;;;3.12;100.00;97467.47;5094063;28;20409;-63
2021/12/20 06:13:58;;;;;;;21.00;13.47;;;;;;;3.17;100.00;97470.38;5094004;28;20420;-63
2021/12/20 06:16:24;;;;;;;18.73;12.98;;;;;;;3.33;100.00;97463.41;5093911;28;20378;-63
2021/12/20 06:18:51;;;;;;;20.95;12.95;;;;;;;3.12;100.00;97460.50;5093896;28;20386;-63
2021/12/20 06:21:17;;;;;;;22.10;14.10;;;;;;;3.15;100.00;97464.56;5094064;28;20407;-63
2021/12/20 06:23:43;;;;;;;20.45;13.70;;;;;;;3.01;100.00;97457.44;5093873;28;20417;-63
2021/12/20 06:26:08;;;;;;;20.33;12.83;;;;;;;2.99;100.00;97465.38;5083940;28;20422;-63
2021/12/20 06:28:34;;;;;;;21.67;13.50;;;;;;;3.05;100.00;97461.31;5093050;28;20423;-63
2021/12/20 06:30:59;;;;;;;19.43;12.90;;;;;;;3.00;100.00;97467.00;5091875;28;20382;-63
2021/12/20 06:33:24;;;;;;;21.90;14.47;;;;;;;2.94;100.00;97470.22;5093213;28;20430;-63
2021/12/20 06:35:51;;;;;;;22.07;14.73;;;;;;;3.05;100.00;97469.09;5093233;28;20423;-63
2021/12/20 06:38:20;;;;;;;20.90;13.77;;;;;;;3.42;100.00;97466.78;5093261;28;20402;-63
2021/12/20 06:40:47;;;;;;;20.33;13.57;;;;;;;3.22;100.00;97471.53;5093288;28;20389;-65
2021/12/20 06:43:12;;;;;;;19.75;12.95;;;;;;;3.15;100.00;97472.31;5093018;28;20459;-63
2021/12/20 06:45:38;;;;;;;18.87;12.87;;;;;;;3.35;100.00;97468.41;5091731;28;20394;-63
2021/12/20 06:48:04;;;;;;;19.33;12.50;;;;;;;3.13;100.00;97472.47;5093346;28;20408;-63
2021/12/20 06:50:30;;;;;;;18.90;12.47;;;;;;;3.17;100.00;97478.16;5091918;28;20394;-63
2021/12/20 06:52:56;;;;;;;19.73;12.90;;;;;;;3.41;100.00;97472.13;5093330;28;20409;-63
2021/12/20 06:55:22;;;;;;;20.67;13.50;;;;;;;3.10;100.00;97472.81;5091524;28;20870;-64
2021/12/20 06:57:47;;;;;;;20.07;13.37;;;;;;;2.99;100.00;97472.34;5093035;28;20521;-63
2021/12/20 07:00:13;;;;;;;20.50;13.63;;;;;;;3.10;100.00;97480.59;5092522;28;20382;-63
2021/12/20 07:02:39;;;;;;;23.35;13.32;;;;;;;3.08;100.00;97477.34;5090806;28;20868;-66
2021/12/20 07:05:05;;;;;;;22.02;13.95;;;;;;;2.88;100.00;97478.63;5092736;28;20422;-63
2021/12/20 07:07:31;;;;;;;21.10;13.77;;;;;;;2.83;100.00;97473.13;5092798;28;20389;-63
2021/12/20 07:09:57;;;;;;;19.80;13.00;;;;;;;3.02;100.00;97490.94;5091712;28;20806;-63
2021/12/20 07:12:22;;;;;;;21.77;13.77;;;;;;;3.40;100.00;97484.25;5092756;28;20736;-63
2021/12/20 07:14:50;;;;;;;21.83;13.52;;;;;;;3.21;100.00;97495.78;5092041;28;20781;-64
2021/12/20 07:17:18;;;;;;;19.83;13.15;;;;;;;2.85;100.00;97487.53;5092639;28;20401;-65
2021/12/20 07:19:43;;;;;;;22.10;13.18;;;;;;;2.89;100.00;97490.63;5092512;28;20904;-70
2021/12/20 07:22:09;;;;;;;21.20;13.30;;;;;;;2.99;100.00;97493.03;5092377;28;20509;-65
2021/12/20 07:24:34;;;;;;;21.87;12.80;;;;;;;3.51;100.00;97494.28;5092502;28;20383;-66
2021/12/20 07:26:59;;;;;;;20.50;13.15;;;;;;;3.13;100.00;97493.19;5092258;28;20465;-65
2021/12/20 07:29:25;;;;;;;21.80;12.97;;;;;;;3.11;100.00;97494.34;5092264;28;20447;-65
2021/12/20 07:31:50;;;;;;;21.50;12.80;;;;;;;3.49;100.00;97496.25;5092293;28;21098;-65
2021/12/20 07:34:16;;;;;;;20.95;12.68;;;;;;;3.14;100.00;97501.78;5092186;28;20417;-65
2021/12/20 07:36:41;;;;;;;21.90;12.63;;;;;;;3.18;100.00;97497.88;5090470;28;20433;-65
2021/12/20 07:39:07;;;;;;;19.60;12.95;;;;;;;2.95;100.00;97502.91;5092165;28;20739;-66
2021/12/20 07:41:33;;;;;;;18.85;12.70;;;;;;;2.97;100.00;97500.97;5091739;28;22638;-66
2021/12/20 07:43:58;;;;;;;20.88;13.68;;;;;;;2.95;100.00;97499.53;5091832;28;20401;-70
2021/12/20 07:46:24;;;;;;;20.03;12.80;;;;;;;2.99;100.00;97503.41;5091831;28;20716;-69
2021/12/20 07:48:50;;;;;;;23.43;14.13;;;;;;;3.07;100.00;97504.19;5091650;28;20389;-67
2021/12/20 07:51:16;;;;;;;20.00;12.60;;;;;;;3.05;100.00;97506.16;5092443;28;20408;-67
2021/12/20 07:53:42;;;;;;;21.83;13.03;;;;;;;3.31;100.00;97503.38;5091241;28;20933;-67
2021/12/20 07:56:07;;;;;;;20.77;12.40;;;;;;;3.33;100.00;97509.22;5091641;28;20382;-67
2021/12/20 07:58:33;;;;;;;20.47;12.43;;;;;;;3.47;100.00;97515.50;5091897;28;20401;-67
2021/12/20 08:00:59;;;;;;;20.10;12.77;;;;;;;3.43;100.00;97520.22;5091389;28;20390;-68
2021/12/20 08:03:24;;;;;;;20.13;12.40;;;;;;;3.57;100.00;97516.97;5090842;28;20406;-67
2021/12/20 08:05:50;;;;;;;20.02;12.40;;;;;;;3.72;100.00;97510.16;5096712;28;20427;-67
2021/12/20 08:08:15;;;;;;;20.93;13.07;;;;;;;3.60;100.00;97508.06;5094333;28;20418;-66
2021/12/20 08:10:41;;;;;;;18.97;12.63;;;;;;;3.48;100.00;97512.78;5084709;28;20388;-73
2021/12/20 08:13:09;;;;;;;20.10;12.82;;;;;;;3.54;100.00;97511.31;5089506;28;20390;-67
2021/12/20 08:15:34;;;;;;;18.40;12.48;;;;;;;3.52;100.00;97515.81;5090271;28;20394;-66
2021/12/20 08:18:00;;;;;;;19.20;12.47;;;;;;;3.41;100.00;97516.16;5090889;28;20393;-67
2021/12/20 08:20:26;;;;;;;19.17;12.67;;;;;;;3.59;100.00;97501.25;5090566;28;20394;-67
2021/12/20 08:22:51;;;;;;;19.27;12.50;;;;;;;3.66;100.00;97508.22;5090611;28;20435;-67
2021/12/20 08:25:18;;;;;;;18.67;12.27;;;;;;;3.64;100.00;97514.53;5089525;28;20410;-68
2021/12/20 08:27:44;;;;;;;19.15;12.23;;;;;;;3.62;100.00;97512.09;5089438;28;20387;-67
2021/12/20 08:30:10;;;;;;;18.65;12.82;;;;;;;3.85;100.00;97507.00;5090435;28;20806;-68
2021/12/20 08:32:36;;;;;;;18.00;12.57;;;;;;;3.98;100.00;97509.09;5091281;28;20473;-67
2021/12/20 08:35:03;;;;;;;18.77;12.03;;;;;;;3.88;100.00;97511.88;5091180;28;20425;-67
2021/12/20 08:37:29;;;;;;;19.23;12.47;;;;;;;4.10;100.00;97516.34;5090664;28;20498;-68
2021/12/20 08:39:54;;;;;;;19.43;12.67;;;;;;;4.17;99.95;97504.34;5090809;28;20382;-67
2021/12/20 08:42:20;;;;;;;18.92;12.40;;;;;;;4.26;98.59;97506.88;5091086;28;20846;-67
2021/12/20 08:44:47;;;;;;;21.73;12.20;;;;;;;4.45;98.01;97514.25;5090380;28;20846;-67
2021/12/20 08:47:13;;;;;;;20.55;12.60;;;;;;;4.45;97.04;97520.25;5090577;28;20435;-66
2021/12/20 08:49:38;;;;;;;17.50;12.10;;;;;;;4.22;98.47;97532.34;5090667;28;20390;-65
2021/12/20 08:52:04;;;;;;;18.47;12.20;;;;;;;4.23;99.36;97515.81;5090888;28;20390;-65
2021/12/20 08:54:29;;;;;;;20.10;13.27;;;;;;;4.29;98.99;97529.91;5090797;28;20386;-65
2021/12/20 08:56:56;;;;;;;17.70;12.23;;;;;;;4.32;98.13;97526.97;5089620;28;20841;-65
2021/12/20 08:59:22;;;;;;;18.45;12.75;;;;;;;4.12;99.41;97529.16;5090346;28;20393;-66
2021/12/20 09:01:48;;;;;;;18.80;13.18;;;;;;;4.35;98.19;97527.41;5090843;28;20421;-65
2021/12/20 09:04:13;;;;;;;21.13;13.60;;;;;;;4.21;98.49;97533.34;5089289;28;20394;-64
2021/12/20 09:06:40;;;;;;;19.83;12.60;;;;;;;4.31;98.71;97533.94;5094999;28;20409;-64
2021/12/20 09:09:07;;;;;;;20.73;13.00;;;;;;;4.49;97.26;97534.50;5094793;28;20445;-65
2021/12/20 09:11:33;;;;;;;21.27;13.18;;;;;;;4.60;96.90;97543.69;5094724;28;20386;-65
2021/12/20 09:13:59;;;;;;;19.67;12.63;;;;;;;4.28;98.05;97546.44;5092647;28;20394;-65
2021/12/20 09:16:25;;;;;;;20.70;12.27;;;;;;;4.26;98.69;97546.59;5094985;28;20398;-65
2021/12/20 09:18:50;;;;;;;18.38;12.18;;;;;;;4.21;98.71;97540.31;5094349;28;20414;-65
2021/12/20 09:21:16;;;;;;;18.80;12.67;;;;;;;4.10;99.63;97549.25;5094591;28;20472;-65
2021/12/20 09:23:42;;;;;;;19.40;12.23;;;;;;;4.09;100.00;97553.63;5094412;28;20490;-65
2021/12/20 09:26:07;;;;;;;19.95;12.63;;;;;;;4.15;100.00;97552.16;5094453;28;20469;-65
2021/12/20 09:28:34;;;;;;;21.92;12.60;;;;;;;4.38;99.62;97555.66;5092755;28;20390;-65
2021/12/20 09:31:01;;;;;;;18.30;11.93;;;;;;;4.14;100.00;97548.75;5093652;28;20708;-65
2021/12/20 09:33:27;;;;;;;20.13;13.18;;;;;;;4.49;99.04;97547.47;5093911;28;20401;-65
2021/12/20 09:35:53;;;;;;;20.83;13.30;;;;;;;4.58;96.38;97540.44;5094255;28;20508;-65
2021/12/20 09:38:20;;;;;;;21.92;13.82;;;;;;;4.31;98.21;97551.28;5093325;28;20463;-65
2021/12/20 09:41:12;;;;;;;20.75;13.10;;;;;;;4.16;99.14;97557.19;5094152;28;20473;-65
2021/12/20 09:43:47;;;;;;;22.73;13.50;;;;;;;4.28;99.14;97557.63;5093540;28;20414;-65
2021/12/20 09:46:13;;;;;;;20.02;13.63;;;;;;;4.57;96.89;97550.03;5094070;28;20394;-65
2021/12/20 09:48:43;;;;;;;19.80;13.15;;;;;;;4.50;97.29;97545.69;5094364;28;20480;-65
2021/12/20 09:51:09;;;;;;;20.45;13.40;;;;;;;4.32;98.11;97556.31;5091965;28;20932;-65
2021/12/20 09:53:34;;;;;;;20.15;13.52;;;;;;;4.64;95.39;97549.34;5093810;28;20382;-65
2021/12/20 09:56:00;;;;;;;22.33;14.53;;;;;;;4.78;94.62;97543.44;5093708;28;20906;-65
2021/12/20 09:58:26;;;;;;;23.80;14.07;;;;;;;4.79;95.22;97552.84;5094043;28;20415;-65
2021/12/20 10:00:53;;;;;;;22.27;13.83;;;;;;;4.96;95.74;97547.38;5091876;28;20397;-67
2021/12/20 10:03:19;;;;;;;21.48;13.93;;;;;;;5.09;95.33;97543.41;5091832;28;20406;-66
2021/12/20 10:05:45;;;;;;;23.23;14.38;;;;;;;5.38;92.39;97546.91;5091856;28;20414;-66
2021/12/20 10:08:16;;;;;;;21.03;13.67;;;;;;;5.36;91.13;97546.28;5092459;28;20498;-65
2021/12/20 10:10:47;;;;;;;21.50;13.98;;;;;;;5.46;90.99;97540.84;5093612;28;20393;-66
2021/12/20 10:13:25;;;;;;;21.38;13.35;;;;;;;5.63;90.56;97539.69;5093062;28;20481;-73
2021/12/20 10:15:52;;;;;;;20.23;13.48;;;;;;;5.60;91.85;97536.66;5093023;28;20890;-65
2021/12/20 10:18:18;;;;;;;20.45;13.32;;;;;;;5.25;91.68;97543.28;5092880;28;20862;-65
2021/12/20 10:20:58;;;;;;;19.30;12.75;;;;;;;4.77;92.42;97547.00;5106989;28;20416;-65
2021/12/20 10:23:28;;;;;;;22.08;14.27;;;;;;;4.67;94.67;97542.06;5091935;28;20439;-65
2021/12/20 10:25:56;;;;;;;21.50;13.37;;;;;;;4.55;95.82;97541.63;5093444;28;20504;-66
2021/12/20 10:28:25;;;;;;;18.10;12.30;;;;;;;4.59;95.03;97542.06;5093227;28;20896;-66
2021/12/20 10:30:55;;;;;;;16.83;11.32;;;;;;;4.71;93.47;97534.72;5091484;28;20385;-67
2021/12/20 10:33:23;;;;;;;20.90;12.38;;;;;;;4.68;93.10;97537.66;5093181;28;20672;-64
2021/12/20 10:35:54;;;;;;;20.20;12.77;;;;;;;4.39;93.02;97533.09;5092921;28;20402;-65
2021/12/20 10:38:42;;;;;;;17.33;11.27;;;;;;;4.71;92.54;97535.53;5083367;28;20418;-66
2021/12/20 10:41:28;;;;;;;17.35;11.13;;;;;;;4.51;93.18;97529.16;5092570;28;20394;-67
2021/12/20 10:44:00;;;;;;;18.23;11.90;;;;;;;4.61;93.71;97527.16;5092814;28;20393;-66
2021/12/20 10:46:29;;;;;;;18.00;12.02;;;;;;;4.46;93.44;97523.63;5092842;28;20433;-66
2021/12/20 10:49:01;;;;;;;18.55;11.85;;;;;;;4.33;91.75;97524.22;5092453;28;20485;-70
2021/12/20 10:51:30;;;;;;;19.27;12.30;;;;;;;4.42;92.97;97522.38;5092233;28;20807;-65
2021/12/20 10:54:00;;;;;;;17.95;12.80;;;;;;;4.49;92.64;97521.53;5091872;28;20425;-66
2021/12/20 10:56:28;;;;;;;18.27;12.23;;;;;;;4.54;92.14;97526.22;5092672;28;20461;-65
2021/12/20 10:58:55;;;;;;;18.52;11.85;;;;;;;4.69;90.42;97521.91;5092477;28;20409;-68
2021/12/20 11:04:01;;;;;;;17.77;11.30;;;;;;;4.50;88.96;97517.97;5092406;28;20437;-67
2021/12/20 11:06:41;;;;;;;19.38;11.55;;;;;;;4.47;89.94;97522.66;5090794;28;20431;-66
2021/12/20 11:09:13;;;;;;;18.20;11.10;;;;;;;4.16;90.32;97523.47;5092626;28;20398;-65
2021/12/20 11:11:43;;;;;;;16.73;10.67;;;;;;;4.25;91.12;97515.63;5092301;28;20393;-66
2021/12/20 11:14:09;;;;;;;19.23;11.80;;;;;;;4.14;92.98;97522.81;5091928;28;20451;-65
2021/12/20 11:16:37;;;;;;;19.73;12.05;;;;;;;4.54;91.91;97515.81;5092139;28;20401;-65
2021/12/20 11:19:20;;;;;;;14.85;10.23;;;;;;;4.66;88.37;97517.06;5092225;28;20404;-66
2021/12/20 11:21:49;;;;;;;16.60;10.05;;;;;;;4.40;87.96;97519.16;5090167;28;20537;-71
2021/12/20 11:24:19;;;;;;;13.07;8.68;;;;;;;4.57;85.26;97520.66;5091613;28;20483;-69
2021/12/20 11:26:45;;;;;;;13.95;9.07;;;;;;;4.64;85.82;97513.81;5092256;28;20477;-65
2021/12/20 11:29:11;;;;;;;13.35;8.40;;;;;;;4.53;85.62;97520.19;5090705;28;20386;-67
2021/12/20 11:31:37;;;;;;;13.88;8.75;;;;;;;4.54;86.50;97510.63;5091956;28;20420;-66
2021/12/20 11:34:03;;;;;;;14.73;9.15;;;;;;;4.54;86.45;97508.84;5091712;28;20394;-66
2021/12/20 11:36:29;;;;;;;14.60;10.02;;;;;;;4.55;88.55;97507.88;5091479;28;20429;-68
2021/12/20 11:38:58;;;;;;;14.85;9.40;;;;;;;5.00;87.80;97498.50;5091579;28;20401;-73